sensor_id;sensor_type;location;lat;lon;timestamp;temperature;humidity
2603;DHT22;1311;47.966;7.958;2023-03-31T00:01:50;12.50;99.90
2603;DHT22;1311;47.966;7.958;2023-03-31T00:04:17;12.60;99.90
2603;DHT22;1311;47.966;7.958;2023-03-31T00:06:48;12.70;99.90
2603;DHT22;1311;47.966;7.958;2023-03-31T00:09:19;12.70;99.90
2603;DHT22;1311;47.966;7.958;2023-03-31T00:11:48;12.60;99.90
2603;DHT22;1311;47.966;7.958;2023-03-31T00:14:16;12.70;99.90
2603;DHT22;1311;47.966;7.958;2023-03-31T00:16:43;12.60;99.90
2603;DHT22;1311;47.966;7.958;2023-03-31T00:19:11;12.60;99.90
2603;DHT22;1311;47.966;7.958;2023-03-31T00:21:42;12.60;99.90
2603;DHT22;1311;47.966;7.958;2023-03-31T00:24:10;12.60;99.90
2603;DHT22;1311;47.966;7.958;2023-03-31T00:26:38;12.50;99.90
2603;DHT22;1311;47.966;7.958;2023-03-31T00:29:07;12.50;99.90
2603;DHT22;1311;47.966;7.958;2023-03-31T00:31:34;12.50;99.90
2603;DHT22;1311;47.966;7.958;2023-03-31T00:34:03;12.50;99.90
2603;DHT22;1311;47.966;7.958;2023-03-31T00:36:30;12.50;99.90
2603;DHT22;1311;47.966;7.958;2023-03-31T00:39:03;12.60;99.90
2603;DHT22;1311;47.966;7.958;2023-03-31T00:41:30;12.50;99.90
2603;DHT22;1311;47.966;7.958;2023-03-31T00:44:10;12.50;99.90
2603;DHT22;1311;47.966;7.958;2023-03-31T00:46:42;12.40;99.90
2603;DHT22;1311;47.966;7.958;2023-03-31T00:49:15;12.30;99.90
2603;DHT22;1311;47.966;7.958;2023-03-31T00:51:48;12.30;99.90
2603;DHT22;1311;47.966;7.958;2023-03-31T00:54:16;12.30;99.90
2603;DHT22;1311;47.966;7.958;2023-03-31T00:56:48;12.20;99.90
2603;DHT22;1311;47.966;7.958;2023-03-31T00:59:18;12.10;99.90
2603;DHT22;1311;47.966;7.958;2023-03-31T01:01:47;12.10;99.90
2603;DHT22;1311;47.966;7.958;2023-03-31T01:04:17;12.00;99.90
2603;DHT22;1311;47.966;7.958;2023-03-31T01:06:53;12.00;99.90
2603;DHT22;1311;47.966;7.958;2023-03-31T01:09:26;11.90;99.90
2603;DHT22;1311;47.966;7.958;2023-03-31T01:11:59;11.80;99.90
2603;DHT22;1311;47.966;7.958;2023-03-31T01:14:28;11.80;99.90
2603;DHT22;1311;47.966;7.958;2023-03-31T01:16:55;11.80;99.90
2603;DHT22;1311;47.966;7.958;2023-03-31T01:19:29;11.70;99.90
2603;DHT22;1311;47.966;7.958;2023-03-31T01:25:46;11.50;99.90
2603;DHT22;1311;47.966;7.958;2023-03-31T01:28:28;11.50;99.90
2603;DHT22;1311;47.966;7.958;2023-03-31T01:31:28;11.40;99.90
2603;DHT22;1311;47.966;7.958;2023-03-31T01:34:36;11.40;99.90
2603;DHT22;1311;47.966;7.958;2023-03-31T01:40:37;11.30;99.90
2603;DHT22;1311;47.966;7.958;2023-03-31T01:43:09;11.30;99.90
2603;DHT22;1311;47.966;7.958;2023-03-31T01:45:47;11.20;99.90
2603;DHT22;1311;47.966;7.958;2023-03-31T01:48:18;11.20;99.90
2603;DHT22;1311;47.966;7.958;2023-03-31T01:50:55;11.20;99.90
2603;DHT22;1311;47.966;7.958;2023-03-31T01:53:29;11.00;99.90
2603;DHT22;1311;47.966;7.958;2023-03-31T01:56:04;10.90;99.90
2603;DHT22;1311;47.966;7.958;2023-03-31T01:58:36;10.80;99.90
2603;DHT22;1311;47.966;7.958;2023-03-31T02:01:08;10.70;99.90
2603;DHT22;1311;47.966;7.958;2023-03-31T02:03:42;10.70;99.90
2603;DHT22;1311;47.966;7.958;2023-03-31T02:06:15;10.70;99.90
2603;DHT22;1311;47.966;7.958;2023-03-31T02:08:47;10.70;99.90
2603;DHT22;1311;47.966;7.958;2023-03-31T02:11:17;10.70;99.90
2603;DHT22;1311;47.966;7.958;2023-03-31T02:13:46;10.60;99.90
2603;DHT22;1311;47.966;7.958;2023-03-31T02:16:17;10.50;99.90
2603;DHT22;1311;47.966;7.958;2023-03-31T02:18:52;10.50;99.90
2603;DHT22;1311;47.966;7.958;2023-03-31T02:21:27;10.40;99.90
2603;DHT22;1311;47.966;7.958;2023-03-31T02:23:55;10.30;99.90
2603;DHT22;1311;47.966;7.958;2023-03-31T02:26:27;10.20;99.90
2603;DHT22;1311;47.966;7.958;2023-03-31T02:28:56;10.10;99.90
2603;DHT22;1311;47.966;7.958;2023-03-31T02:31:27;10.10;99.90
2603;DHT22;1311;47.966;7.958;2023-03-31T02:33:55;10.00;99.90
2603;DHT22;1311;47.966;7.958;2023-03-31T02:36:22;10.00;99.90
2603;DHT22;1311;47.966;7.958;2023-03-31T02:38:54;10.00;99.90
2603;DHT22;1311;47.966;7.958;2023-03-31T02:41:23;10.00;99.90
2603;DHT22;1311;47.966;7.958;2023-03-31T02:43:50;9.90;99.90
2603;DHT22;1311;47.966;7.958;2023-03-31T02:46:17;9.90;99.90
2603;DHT22;1311;47.966;7.958;2023-03-31T02:48:46;9.80;99.90
2603;DHT22;1311;47.966;7.958;2023-03-31T02:51:49;9.80;99.90
2603;DHT22;1311;47.966;7.958;2023-03-31T02:54:36;9.80;99.90
2603;DHT22;1311;47.966;7.958;2023-03-31T02:57:24;9.80;99.90
2603;DHT22;1311;47.966;7.958;2023-03-31T03:00:05;9.80;99.90
2603;DHT22;1311;47.966;7.958;2023-03-31T03:02:39;9.90;99.90
2603;DHT22;1311;47.966;7.958;2023-03-31T03:05:18;9.90;99.90
2603;DHT22;1311;47.966;7.958;2023-03-31T03:07:50;9.90;99.90
2603;DHT22;1311;47.966;7.958;2023-03-31T03:10:27;9.90;99.90
2603;DHT22;1311;47.966;7.958;2023-03-31T03:13:06;9.90;99.90
2603;DHT22;1311;47.966;7.958;2023-03-31T03:15:38;9.80;99.90
2603;DHT22;1311;47.966;7.958;2023-03-31T03:18:08;9.80;99.90
2603;DHT22;1311;47.966;7.958;2023-03-31T03:20:35;9.80;99.90
2603;DHT22;1311;47.966;7.958;2023-03-31T03:23:03;9.80;99.90
2603;DHT22;1311;47.966;7.958;2023-03-31T03:25:30;9.90;99.90
2603;DHT22;1311;47.966;7.958;2023-03-31T03:27:58;9.90;99.90
2603;DHT22;1311;47.966;7.958;2023-03-31T03:30:26;9.90;99.90
2603;DHT22;1311;47.966;7.958;2023-03-31T03:32:53;10.00;99.90
2603;DHT22;1311;47.966;7.958;2023-03-31T03:35:20;10.00;99.90
2603;DHT22;1311;47.966;7.958;2023-03-31T03:37:47;10.00;99.90
2603;DHT22;1311;47.966;7.958;2023-03-31T03:40:13;10.00;99.90
2603;DHT22;1311;47.966;7.958;2023-03-31T03:42:40;10.10;99.90
2603;DHT22;1311;47.966;7.958;2023-03-31T03:45:08;10.10;99.90
2603;DHT22;1311;47.966;7.958;2023-03-31T03:47:36;10.10;99.90
2603;DHT22;1311;47.966;7.958;2023-03-31T03:50:04;10.10;99.90
2603;DHT22;1311;47.966;7.958;2023-03-31T03:52:31;10.10;99.90
2603;DHT22;1311;47.966;7.958;2023-03-31T03:54:57;10.20;99.90
2603;DHT22;1311;47.966;7.958;2023-03-31T03:57:26;10.30;99.90
2603;DHT22;1311;47.966;7.958;2023-03-31T03:59:52;10.40;99.90
2603;DHT22;1311;47.966;7.958;2023-03-31T04:02:19;10.50;99.90
2603;DHT22;1311;47.966;7.958;2023-03-31T04:04:47;10.70;99.90
2603;DHT22;1311;47.966;7.958;2023-03-31T04:07:14;10.80;99.90
2603;DHT22;1311;47.966;7.958;2023-03-31T04:09:41;11.00;99.90
2603;DHT22;1311;47.966;7.958;2023-03-31T04:12:08;11.10;99.90
2603;DHT22;1311;47.966;7.958;2023-03-31T04:14:35;11.20;99.90
2603;DHT22;1311;47.966;7.958;2023-03-31T04:17:02;11.30;99.90
2603;DHT22;1311;47.966;7.958;2023-03-31T04:19:29;11.30;99.90
2603;DHT22;1311;47.966;7.958;2023-03-31T04:21:57;11.50;99.90
2603;DHT22;1311;47.966;7.958;2023-03-31T04:24:27;11.60;99.90
2603;DHT22;1311;47.966;7.958;2023-03-31T04:26:55;11.60;99.90
2603;DHT22;1311;47.966;7.958;2023-03-31T04:29:22;11.70;99.90
2603;DHT22;1311;47.966;7.958;2023-03-31T04:31:51;11.80;99.90
2603;DHT22;1311;47.966;7.958;2023-03-31T04:34:18;11.80;99.90
2603;DHT22;1311;47.966;7.958;2023-03-31T04:36:51;11.80;99.90
2603;DHT22;1311;47.966;7.958;2023-03-31T04:39:21;11.80;99.90
2603;DHT22;1311;47.966;7.958;2023-03-31T04:41:51;12.00;99.90
2603;DHT22;1311;47.966;7.958;2023-03-31T04:44:18;11.90;99.90
2603;DHT22;1311;47.966;7.958;2023-03-31T04:46:44;11.90;99.90
2603;DHT22;1311;47.966;7.958;2023-03-31T04:49:11;11.80;99.90
2603;DHT22;1311;47.966;7.958;2023-03-31T04:51:38;11.80;99.90
2603;DHT22;1311;47.966;7.958;2023-03-31T04:54:05;11.80;99.90
2603;DHT22;1311;47.966;7.958;2023-03-31T04:56:33;11.70;99.90
2603;DHT22;1311;47.966;7.958;2023-03-31T04:59:00;11.70;99.90
2603;DHT22;1311;47.966;7.958;2023-03-31T05:01:28;11.70;99.90
2603;DHT22;1311;47.966;7.958;2023-03-31T05:03:57;11.70;99.90
2603;DHT22;1311;47.966;7.958;2023-03-31T05:06:24;11.70;99.90
2603;DHT22;1311;47.966;7.958;2023-03-31T05:08:51;11.60;99.90
2603;DHT22;1311;47.966;7.958;2023-03-31T05:11:18;11.60;99.90
2603;DHT22;1311;47.966;7.958;2023-03-31T05:13:46;11.50;99.90
2603;DHT22;1311;47.966;7.958;2023-03-31T05:16:13;11.50;99.90
2603;DHT22;1311;47.966;7.958;2023-03-31T05:18:40;11.40;99.90
2603;DHT22;1311;47.966;7.958;2023-03-31T05:21:09;11.40;99.90
2603;DHT22;1311;47.966;7.958;2023-03-31T05:23:36;11.40;99.90
2603;DHT22;1311;47.966;7.958;2023-03-31T05:26:03;11.30;99.90
2603;DHT22;1311;47.966;7.958;2023-03-31T05:28:30;11.20;99.90
2603;DHT22;1311;47.966;7.958;2023-03-31T05:30:59;11.20;99.90
2603;DHT22;1311;47.966;7.958;2023-03-31T05:33:27;11.20;99.90
2603;DHT22;1311;47.966;7.958;2023-03-31T05:35:54;11.20;99.90
2603;DHT22;1311;47.966;7.958;2023-03-31T05:38:21;11.20;99.90
2603;DHT22;1311;47.966;7.958;2023-03-31T05:40:48;11.30;99.90
2603;DHT22;1311;47.966;7.958;2023-03-31T05:43:15;11.20;99.90
2603;DHT22;1311;47.966;7.958;2023-03-31T05:45:41;11.20;99.90
2603;DHT22;1311;47.966;7.958;2023-03-31T05:48:10;11.20;99.90
2603;DHT22;1311;47.966;7.958;2023-03-31T05:50:36;11.20;99.90
2603;DHT22;1311;47.966;7.958;2023-03-31T05:53:03;11.20;99.90
2603;DHT22;1311;47.966;7.958;2023-03-31T05:55:30;11.20;99.90
2603;DHT22;1311;47.966;7.958;2023-03-31T05:57:58;11.20;99.90
2603;DHT22;1311;47.966;7.958;2023-03-31T06:00:25;11.10;99.90
2603;DHT22;1311;47.966;7.958;2023-03-31T06:02:52;11.10;99.90
2603;DHT22;1311;47.966;7.958;2023-03-31T06:05:20;11.20;99.90
2603;DHT22;1311;47.966;7.958;2023-03-31T06:07:51;11.20;99.90
2603;DHT22;1311;47.966;7.958;2023-03-31T06:10:18;11.20;99.90
2603;DHT22;1311;47.966;7.958;2023-03-31T06:12:45;11.40;99.90
2603;DHT22;1311;47.966;7.958;2023-03-31T06:15:11;11.30;99.90
2603;DHT22;1311;47.966;7.958;2023-03-31T06:17:38;11.00;99.90
2603;DHT22;1311;47.966;7.958;2023-03-31T06:20:06;10.80;99.90
2603;DHT22;1311;47.966;7.958;2023-03-31T06:22:34;10.20;99.90
2603;DHT22;1311;47.966;7.958;2023-03-31T06:25:03;10.10;99.90
2603;DHT22;1311;47.966;7.958;2023-03-31T06:27:29;9.90;99.90
2603;DHT22;1311;47.966;7.958;2023-03-31T06:29:56;10.00;99.90
2603;DHT22;1311;47.966;7.958;2023-03-31T06:32:23;9.90;99.90
2603;DHT22;1311;47.966;7.958;2023-03-31T06:34:50;9.90;99.90
2603;DHT22;1311;47.966;7.958;2023-03-31T06:37:16;9.90;99.90
2603;DHT22;1311;47.966;7.958;2023-03-31T06:39:44;9.90;99.90
2603;DHT22;1311;47.966;7.958;2023-03-31T06:42:11;9.80;99.90
2603;DHT22;1311;47.966;7.958;2023-03-31T06:44:38;9.80;99.90
2603;DHT22;1311;47.966;7.958;2023-03-31T06:47:05;9.80;99.90
2603;DHT22;1311;47.966;7.958;2023-03-31T06:49:31;9.80;99.90
2603;DHT22;1311;47.966;7.958;2023-03-31T06:51:58;9.90;99.90
2603;DHT22;1311;47.966;7.958;2023-03-31T06:54:25;10.00;99.90
2603;DHT22;1311;47.966;7.958;2023-03-31T06:56:53;10.00;99.90
2603;DHT22;1311;47.966;7.958;2023-03-31T06:59:20;10.00;99.90
2603;DHT22;1311;47.966;7.958;2023-03-31T07:01:47;10.10;99.90
2603;DHT22;1311;47.966;7.958;2023-03-31T07:04:14;10.10;99.90
2603;DHT22;1311;47.966;7.958;2023-03-31T07:06:41;10.00;99.90
2603;DHT22;1311;47.966;7.958;2023-03-31T07:09:08;10.00;99.90
2603;DHT22;1311;47.966;7.958;2023-03-31T07:11:35;10.10;99.90
2603;DHT22;1311;47.966;7.958;2023-03-31T07:14:03;10.20;99.90
2603;DHT22;1311;47.966;7.958;2023-03-31T07:16:29;10.30;99.90
2603;DHT22;1311;47.966;7.958;2023-03-31T07:18:56;10.40;99.90
2603;DHT22;1311;47.966;7.958;2023-03-31T07:21:24;10.50;99.90
2603;DHT22;1311;47.966;7.958;2023-03-31T07:23:51;10.50;99.90
2603;DHT22;1311;47.966;7.958;2023-03-31T07:26:17;10.60;99.90
2603;DHT22;1311;47.966;7.958;2023-03-31T07:28:44;10.70;99.90
2603;DHT22;1311;47.966;7.958;2023-03-31T07:31:13;10.80;99.90
2603;DHT22;1311;47.966;7.958;2023-03-31T07:33:41;11.00;99.90
2603;DHT22;1311;47.966;7.958;2023-03-31T07:36:08;11.60;99.90
2603;DHT22;1311;47.966;7.958;2023-03-31T07:38:35;11.80;99.90
2603;DHT22;1311;47.966;7.958;2023-03-31T07:41:02;11.60;99.90
2603;DHT22;1311;47.966;7.958;2023-03-31T07:43:29;11.60;99.90
2603;DHT22;1311;47.966;7.958;2023-03-31T07:45:55;11.60;99.90
2603;DHT22;1311;47.966;7.958;2023-03-31T07:48:24;11.90;99.90
2603;DHT22;1311;47.966;7.958;2023-03-31T07:53:52;12.00;99.90
2603;DHT22;1311;47.966;7.958;2023-03-31T07:56:20;12.10;99.90
2603;DHT22;1311;47.966;7.958;2023-03-31T07:58:47;12.10;99.90
2603;DHT22;1311;47.966;7.958;2023-03-31T08:01:15;12.30;99.90
2603;DHT22;1311;47.966;7.958;2023-03-31T08:03:45;12.30;99.90
2603;DHT22;1311;47.966;7.958;2023-03-31T08:06:17;12.30;99.90
2603;DHT22;1311;47.966;7.958;2023-03-31T08:08:43;12.50;99.90
2603;DHT22;1311;47.966;7.958;2023-03-31T08:11:10;12.80;99.90
2603;DHT22;1311;47.966;7.958;2023-03-31T08:13:37;13.10;99.90
2603;DHT22;1311;47.966;7.958;2023-03-31T08:16:04;13.00;99.90
2603;DHT22;1311;47.966;7.958;2023-03-31T08:18:31;13.00;99.90
2603;DHT22;1311;47.966;7.958;2023-03-31T08:20:59;12.90;99.90
2603;DHT22;1311;47.966;7.958;2023-03-31T08:23:26;12.90;99.90
2603;DHT22;1311;47.966;7.958;2023-03-31T08:25:52;12.90;99.90
2603;DHT22;1311;47.966;7.958;2023-03-31T08:28:19;13.00;99.90
2603;DHT22;1311;47.966;7.958;2023-03-31T08:30:46;13.10;99.90
2603;DHT22;1311;47.966;7.958;2023-03-31T08:33:12;13.20;99.90
2603;DHT22;1311;47.966;7.958;2023-03-31T08:35:39;13.20;99.90
2603;DHT22;1311;47.966;7.958;2023-03-31T08:38:07;13.40;99.90
2603;DHT22;1311;47.966;7.958;2023-03-31T08:40:34;13.40;99.90
2603;DHT22;1311;47.966;7.958;2023-03-31T08:43:05;14.00;99.90
2603;DHT22;1311;47.966;7.958;2023-03-31T08:45:35;14.40;99.90
2603;DHT22;1311;47.966;7.958;2023-03-31T08:48:06;14.50;99.90
2603;DHT22;1311;47.966;7.958;2023-03-31T08:50:42;14.70;99.90
2603;DHT22;1311;47.966;7.958;2023-03-31T08:53:19;14.90;99.90
2603;DHT22;1311;47.966;7.958;2023-03-31T08:55:50;14.80;99.90
2603;DHT22;1311;47.966;7.958;2023-03-31T08:58:28;14.80;99.90
2603;DHT22;1311;47.966;7.958;2023-03-31T09:01:01;14.80;99.90
2603;DHT22;1311;47.966;7.958;2023-03-31T09:03:33;15.00;99.90
2603;DHT22;1311;47.966;7.958;2023-03-31T09:06:05;15.10;99.90
2603;DHT22;1311;47.966;7.958;2023-03-31T09:08:36;15.50;99.90
2603;DHT22;1311;47.966;7.958;2023-03-31T09:11:10;15.40;99.90
2603;DHT22;1311;47.966;7.958;2023-03-31T09:13:55;14.90;99.90
2603;DHT22;1311;47.966;7.958;2023-03-31T09:16:23;14.70;99.90
2603;DHT22;1311;47.966;7.958;2023-03-31T09:18:53;14.50;99.90
2603;DHT22;1311;47.966;7.958;2023-03-31T09:21:26;14.80;99.90
2603;DHT22;1311;47.966;7.958;2023-03-31T09:24:00;14.80;99.90
2603;DHT22;1311;47.966;7.958;2023-03-31T09:26:39;15.00;99.90
2603;DHT22;1311;47.966;7.958;2023-03-31T09:29:12;15.50;99.90
2603;DHT22;1311;47.966;7.958;2023-03-31T09:31:43;16.00;99.90
2603;DHT22;1311;47.966;7.958;2023-03-31T09:34:14;15.80;99.90
2603;DHT22;1311;47.966;7.958;2023-03-31T09:36:41;15.10;99.90
2603;DHT22;1311;47.966;7.958;2023-03-31T09:39:11;15.20;99.90
2603;DHT22;1311;47.966;7.958;2023-03-31T09:41:42;15.50;99.90
2603;DHT22;1311;47.966;7.958;2023-03-31T09:44:19;15.30;99.90
2603;DHT22;1311;47.966;7.958;2023-03-31T09:46:47;15.60;99.90
2603;DHT22;1311;47.966;7.958;2023-03-31T09:49:17;15.70;99.90
2603;DHT22;1311;47.966;7.958;2023-03-31T09:51:47;15.60;99.90
2603;DHT22;1311;47.966;7.958;2023-03-31T09:54:21;15.40;99.90
2603;DHT22;1311;47.966;7.958;2023-03-31T09:56:51;15.50;99.90
2603;DHT22;1311;47.966;7.958;2023-03-31T09:59:19;15.50;79.10
2603;DHT22;1311;47.966;7.958;2023-03-31T10:01:50;15.40;51.30
2603;DHT22;1311;47.966;7.958;2023-03-31T10:04:21;15.70;38.40
2603;DHT22;1311;47.966;7.958;2023-03-31T10:06:49;16.50;28.60
2603;DHT22;1311;47.966;7.958;2023-03-31T10:09:18;17.00;1.00
2603;DHT22;1311;47.966;7.958;2023-03-31T10:11:55;17.00;1.00
2603;DHT22;1311;47.966;7.958;2023-03-31T10:14:32;17.30;1.00
2603;DHT22;1311;47.966;7.958;2023-03-31T10:17:04;17.40;1.00
2603;DHT22;1311;47.966;7.958;2023-03-31T10:19:33;17.40;99.90
2603;DHT22;1311;47.966;7.958;2023-03-31T10:22:02;17.40;99.90
2603;DHT22;1311;47.966;7.958;2023-03-31T10:24:37;17.10;1.00
2603;DHT22;1311;47.966;7.958;2023-03-31T10:27:06;17.10;1.00
2603;DHT22;1311;47.966;7.958;2023-03-31T10:29:39;16.60;1.00
2603;DHT22;1311;47.966;7.958;2023-03-31T10:32:10;16.30;99.90
2603;DHT22;1311;47.966;7.958;2023-03-31T10:34:42;16.40;1.00
2603;DHT22;1311;47.966;7.958;2023-03-31T10:37:14;16.00;99.90
2603;DHT22;1311;47.966;7.958;2023-03-31T10:39:44;16.00;99.90
2603;DHT22;1311;47.966;7.958;2023-03-31T10:42:21;16.40;99.90
2603;DHT22;1311;47.966;7.958;2023-03-31T10:44:48;16.80;99.90
2603;DHT22;1311;47.966;7.958;2023-03-31T10:47:18;16.70;1.00
2603;DHT22;1311;47.966;7.958;2023-03-31T10:49:49;16.70;1.00
2603;DHT22;1311;47.966;7.958;2023-03-31T10:52:19;16.50;99.90
2603;DHT22;1311;47.966;7.958;2023-03-31T10:54:54;15.80;99.90
2603;DHT22;1311;47.966;7.958;2023-03-31T10:57:30;16.30;1.00
2603;DHT22;1311;47.966;7.958;2023-03-31T11:00:10;16.40;1.00
2603;DHT22;1311;47.966;7.958;2023-03-31T11:03:20;16.30;1.00
2603;DHT22;1311;47.966;7.958;2023-03-31T11:05:58;16.40;99.90
2603;DHT22;1311;47.966;7.958;2023-03-31T11:08:41;16.80;99.90
2603;DHT22;1311;47.966;7.958;2023-03-31T11:11:23;17.10;14.60
2603;DHT22;1311;47.966;7.958;2023-03-31T11:13:57;17.10;1.00
2603;DHT22;1311;47.966;7.958;2023-03-31T11:16:31;16.50;99.90
2603;DHT22;1311;47.966;7.958;2023-03-31T11:19:14;16.70;99.90
2603;DHT22;1311;47.966;7.958;2023-03-31T11:21:53;16.80;99.90
2603;DHT22;1311;47.966;7.958;2023-03-31T11:24:32;16.80;99.90
2603;DHT22;1311;47.966;7.958;2023-03-31T11:27:13;16.50;1.00
2603;DHT22;1311;47.966;7.958;2023-03-31T11:29:52;16.20;1.00
2603;DHT22;1311;47.966;7.958;2023-03-31T11:32:32;15.80;50.50
2603;DHT22;1311;47.966;7.958;2023-03-31T11:35:09;15.60;99.90
2603;DHT22;1311;47.966;7.958;2023-03-31T11:37:55;15.30;57.70
2603;DHT22;1311;47.966;7.958;2023-03-31T11:40:44;15.40;1.00
2603;DHT22;1311;47.966;7.958;2023-03-31T11:43:23;15.70;1.00
2603;DHT22;1311;47.966;7.958;2023-03-31T11:45:56;15.50;5.10
2603;DHT22;1311;47.966;7.958;2023-03-31T11:48:32;15.70;5.60
2603;DHT22;1311;47.966;7.958;2023-03-31T11:51:02;15.30;1.00
2603;DHT22;1311;47.966;7.958;2023-03-31T11:53:32;15.20;1.00
2603;DHT22;1311;47.966;7.958;2023-03-31T11:56:01;14.70;1.00
2603;DHT22;1311;47.966;7.958;2023-03-31T11:58:34;14.50;1.00
2603;DHT22;1311;47.966;7.958;2023-03-31T12:01:08;13.70;1.00
2603;DHT22;1311;47.966;7.958;2023-03-31T12:03:43;12.80;1.00
2603;DHT22;1311;47.966;7.958;2023-03-31T12:06:12;12.10;99.90
2603;DHT22;1311;47.966;7.958;2023-03-31T12:08:48;11.80;99.90
2603;DHT22;1311;47.966;7.958;2023-03-31T12:11:22;12.10;99.90
2603;DHT22;1311;47.966;7.958;2023-03-31T12:13:57;12.30;99.90
2603;DHT22;1311;47.966;7.958;2023-03-31T12:16:39;12.70;99.90
2603;DHT22;1311;47.966;7.958;2023-03-31T12:19:12;13.20;99.90
2603;DHT22;1311;47.966;7.958;2023-03-31T12:21:46;13.60;99.90
2603;DHT22;1311;47.966;7.958;2023-03-31T12:24:14;13.50;99.90
2603;DHT22;1311;47.966;7.958;2023-03-31T12:26:49;13.70;99.90
2603;DHT22;1311;47.966;7.958;2023-03-31T12:29:26;13.70;99.90
2603;DHT22;1311;47.966;7.958;2023-03-31T12:31:56;13.90;92.60
2603;DHT22;1311;47.966;7.958;2023-03-31T12:34:25;14.00;57.80
2603;DHT22;1311;47.966;7.958;2023-03-31T12:37:04;14.60;56.30
2603;DHT22;1311;47.966;7.958;2023-03-31T12:39:43;15.00;44.70
2603;DHT22;1311;47.966;7.958;2023-03-31T12:42:38;14.90;8.10
2603;DHT22;1311;47.966;7.958;2023-03-31T12:45:14;15.30;1.00
2603;DHT22;1311;47.966;7.958;2023-03-31T12:50:56;15.50;1.00
2603;DHT22;1311;47.966;7.958;2023-03-31T12:53:36;15.30;1.00
2603;DHT22;1311;47.966;7.958;2023-03-31T12:56:07;16.30;1.00
2603;DHT22;1311;47.966;7.958;2023-03-31T12:58:44;16.50;99.90
2603;DHT22;1311;47.966;7.958;2023-03-31T13:01:17;16.40;1.00
2603;DHT22;1311;47.966;7.958;2023-03-31T13:03:47;16.10;99.90
2603;DHT22;1311;47.966;7.958;2023-03-31T13:09:54;15.90;1.00
2603;DHT22;1311;47.966;7.958;2023-03-31T13:12:23;16.00;1.00
2603;DHT22;1311;47.966;7.958;2023-03-31T13:14:53;15.60;1.00
2603;DHT22;1311;47.966;7.958;2023-03-31T13:17:28;15.50;99.90
2603;DHT22;1311;47.966;7.958;2023-03-31T13:22:40;15.00;1.00
2603;DHT22;1311;47.966;7.958;2023-03-31T13:25:38;14.80;1.00
2603;DHT22;1311;47.966;7.958;2023-03-31T13:28:15;14.60;1.00
2603;DHT22;1311;47.966;7.958;2023-03-31T13:30:51;14.30;1.00
2603;DHT22;1311;47.966;7.958;2023-03-31T13:33:25;14.20;1.00
2603;DHT22;1311;47.966;7.958;2023-03-31T13:38:56;13.40;99.90
2603;DHT22;1311;47.966;7.958;2023-03-31T13:41:36;13.00;99.90
2603;DHT22;1311;47.966;7.958;2023-03-31T13:44:35;12.80;99.90
2603;DHT22;1311;47.966;7.958;2023-03-31T13:47:32;12.10;99.90
2603;DHT22;1311;47.966;7.958;2023-03-31T13:53:07;10.90;99.90
2603;DHT22;1311;47.966;7.958;2023-03-31T13:56:03;10.50;99.90
2603;DHT22;1311;47.966;7.958;2023-03-31T14:02:10;10.20;99.90
2603;DHT22;1311;47.966;7.958;2023-03-31T14:04:58;10.00;99.90
2603;DHT22;1311;47.966;7.958;2023-03-31T14:07:31;10.00;99.90
2603;DHT22;1311;47.966;7.958;2023-03-31T14:10:00;9.90;99.90
2603;DHT22;1311;47.966;7.958;2023-03-31T14:12:33;10.10;99.90
2603;DHT22;1311;47.966;7.958;2023-03-31T14:15:00;10.30;99.90
2603;DHT22;1311;47.966;7.958;2023-03-31T14:17:29;10.60;99.90
2603;DHT22;1311;47.966;7.958;2023-03-31T14:23:03;12.00;99.90
2603;DHT22;1311;47.966;7.958;2023-03-31T14:25:40;12.50;99.90
2603;DHT22;1311;47.966;7.958;2023-03-31T14:31:11;12.20;99.90
2603;DHT22;1311;47.966;7.958;2023-03-31T14:33:49;11.60;99.90
2603;DHT22;1311;47.966;7.958;2023-03-31T14:36:26;11.10;99.90
2603;DHT22;1311;47.966;7.958;2023-03-31T14:39:03;10.80;99.90
2603;DHT22;1311;47.966;7.958;2023-03-31T14:41:30;10.80;99.90
2603;DHT22;1311;47.966;7.958;2023-03-31T14:44:01;10.70;99.90
2603;DHT22;1311;47.966;7.958;2023-03-31T14:46:30;10.80;99.90
2603;DHT22;1311;47.966;7.958;2023-03-31T14:49:04;10.60;99.90
2603;DHT22;1311;47.966;7.958;2023-03-31T14:51:31;10.70;99.90
2603;DHT22;1311;47.966;7.958;2023-03-31T14:54:00;10.80;99.90
2603;DHT22;1311;47.966;7.958;2023-03-31T14:56:31;10.90;99.90
2603;DHT22;1311;47.966;7.958;2023-03-31T14:59:01;11.10;99.90
2603;DHT22;1311;47.966;7.958;2023-03-31T15:01:30;11.20;99.90
2603;DHT22;1311;47.966;7.958;2023-03-31T15:04:00;11.10;99.90
2603;DHT22;1311;47.966;7.958;2023-03-31T15:06:30;11.40;99.90
2603;DHT22;1311;47.966;7.958;2023-03-31T15:09:02;11.90;99.90
2603;DHT22;1311;47.966;7.958;2023-03-31T15:11:30;12.00;99.90
2603;DHT22;1311;47.966;7.958;2023-03-31T15:13:58;12.30;99.90
2603;DHT22;1311;47.966;7.958;2023-03-31T15:16:32;12.10;99.90
2603;DHT22;1311;47.966;7.958;2023-03-31T15:19:03;12.30;99.90
2603;DHT22;1311;47.966;7.958;2023-03-31T15:21:35;12.50;99.90
2603;DHT22;1311;47.966;7.958;2023-03-31T15:24:04;12.60;99.90
2603;DHT22;1311;47.966;7.958;2023-03-31T15:26:35;12.50;99.90
2603;DHT22;1311;47.966;7.958;2023-03-31T15:29:06;12.40;99.90
2603;DHT22;1311;47.966;7.958;2023-03-31T15:31:34;12.20;99.90
2603;DHT22;1311;47.966;7.958;2023-03-31T15:34:13;12.40;99.90
2603;DHT22;1311;47.966;7.958;2023-03-31T15:36:40;12.50;99.90
2603;DHT22;1311;47.966;7.958;2023-03-31T15:39:09;12.40;99.90
2603;DHT22;1311;47.966;7.958;2023-03-31T15:41:37;11.90;99.90
2603;DHT22;1311;47.966;7.958;2023-03-31T15:44:05;11.90;99.90
2603;DHT22;1311;47.966;7.958;2023-03-31T15:46:54;12.00;99.90
2603;DHT22;1311;47.966;7.958;2023-03-31T15:49:23;12.00;99.90
2603;DHT22;1311;47.966;7.958;2023-03-31T15:51:53;11.90;99.90
2603;DHT22;1311;47.966;7.958;2023-03-31T15:54:36;11.80;99.90
2603;DHT22;1311;47.966;7.958;2023-03-31T15:57:05;11.80;99.90
2603;DHT22;1311;47.966;7.958;2023-03-31T15:59:43;11.80;99.90
2603;DHT22;1311;47.966;7.958;2023-03-31T16:02:14;11.80;99.90
2603;DHT22;1311;47.966;7.958;2023-03-31T16:04:42;11.70;99.90
2603;DHT22;1311;47.966;7.958;2023-03-31T16:07:15;11.70;99.90
2603;DHT22;1311;47.966;7.958;2023-03-31T16:09:55;11.70;99.90
2603;DHT22;1311;47.966;7.958;2023-03-31T16:12:38;11.70;99.90
2603;DHT22;1311;47.966;7.958;2023-03-31T16:15:13;11.80;99.90
2603;DHT22;1311;47.966;7.958;2023-03-31T16:17:47;11.60;99.90
2603;DHT22;1311;47.966;7.958;2023-03-31T16:20:19;11.60;99.90
2603;DHT22;1311;47.966;7.958;2023-03-31T16:22:50;11.50;99.90
2603;DHT22;1311;47.966;7.958;2023-03-31T16:25:26;11.40;99.90
2603;DHT22;1311;47.966;7.958;2023-03-31T16:27:59;11.30;99.90
2603;DHT22;1311;47.966;7.958;2023-03-31T16:30:38;11.30;99.90
2603;DHT22;1311;47.966;7.958;2023-03-31T16:33:22;11.20;99.90
2603;DHT22;1311;47.966;7.958;2023-03-31T16:35:57;11.20;99.90
2603;DHT22;1311;47.966;7.958;2023-03-31T16:38:45;11.20;99.90
2603;DHT22;1311;47.966;7.958;2023-03-31T16:41:17;11.10;99.90
2603;DHT22;1311;47.966;7.958;2023-03-31T16:43:48;11.10;99.90
2603;DHT22;1311;47.966;7.958;2023-03-31T16:46:21;11.10;99.90
2603;DHT22;1311;47.966;7.958;2023-03-31T16:48:49;11.10;99.90
2603;DHT22;1311;47.966;7.958;2023-03-31T16:51:17;11.10;99.90
2603;DHT22;1311;47.966;7.958;2023-03-31T16:53:46;11.10;99.90
2603;DHT22;1311;47.966;7.958;2023-03-31T16:56:18;11.00;99.90
2603;DHT22;1311;47.966;7.958;2023-03-31T16:58:46;11.00;99.90
2603;DHT22;1311;47.966;7.958;2023-03-31T17:01:13;10.90;99.90
2603;DHT22;1311;47.966;7.958;2023-03-31T17:03:40;10.90;99.90
2603;DHT22;1311;47.966;7.958;2023-03-31T17:06:09;10.80;99.90
2603;DHT22;1311;47.966;7.958;2023-03-31T17:08:37;10.80;99.90